createdAt,value
2023-05-05T00:02:24.489Z,5.50
2023-05-05T00:04:51.016Z,5.35
2023-05-05T00:07:17.453Z,5.72
2023-05-05T00:09:44.118Z,5.57
2023-05-05T00:12:10.573Z,6.23
2023-05-05T00:14:36.996Z,7.07
2023-05-05T00:17:04.806Z,6.05
2023-05-05T00:19:31.292Z,6.05
2023-05-05T00:21:57.733Z,5.95
2023-05-05T00:24:24.214Z,5.47
2023-05-05T00:26:50.607Z,6.53
2023-05-05T00:29:17.033Z,5.18
2023-05-05T00:31:43.521Z,6.68
2023-05-05T00:34:11.322Z,4.90
2023-05-05T00:36:37.737Z,5.90
2023-05-05T00:39:04.178Z,5.97
2023-05-05T00:41:30.624Z,5.05
2023-05-05T00:43:57.071Z,5.10
2023-05-05T00:46:25.769Z,5.78
2023-05-05T00:48:52.920Z,5.55
2023-05-05T00:51:21.701Z,5.47
2023-05-05T00:53:48.610Z,5.72
2023-05-05T00:56:16.501Z,6.13
2023-05-05T00:58:44.129Z,5.45
2023-05-05T01:01:11.762Z,5.80
2023-05-05T01:03:38.980Z,5.15
2023-05-05T01:06:13.412Z,5.78
2023-05-05T01:08:51.041Z,5.20
2023-05-05T01:11:25.034Z,5.60
2023-05-05T01:14:01.064Z,6.20
2023-05-05T01:16:30.169Z,5.72
2023-05-05T01:19:00.866Z,5.38
2023-05-05T01:21:31.796Z,6.22
2023-05-05T01:24:29.291Z,5.25
2023-05-05T01:27:11.093Z,4.68
2023-05-05T01:29:57.977Z,5.28
2023-05-05T01:32:35.514Z,5.28
2023-05-05T01:35:04.567Z,5.53
2023-05-05T01:37:39.246Z,4.97
2023-05-05T01:40:09.704Z,5.07
2023-05-05T01:42:37.820Z,5.30
2023-05-05T01:45:06.629Z,4.70
2023-05-05T01:47:37.430Z,5.28
2023-05-05T01:50:06.287Z,5.20
2023-05-05T01:52:34.335Z,5.03
2023-05-05T01:55:03.052Z,4.85
2023-05-05T01:57:30.726Z,4.47
2023-05-05T01:59:58.650Z,4.85
2023-05-05T02:02:27.714Z,4.72
2023-05-05T02:04:57.196Z,5.18
2023-05-05T02:07:24.230Z,4.05
2023-05-05T02:09:51.959Z,4.57
2023-05-05T02:12:19.852Z,4.18
2023-05-05T02:14:47.565Z,4.38
2023-05-05T02:17:16.283Z,4.70
2023-05-05T02:19:45.692Z,5.20
2023-05-05T02:22:13.542Z,4.85
2023-05-05T02:24:39.989Z,4.85
2023-05-05T02:27:08.226Z,4.80
2023-05-05T02:29:38.632Z,4.30
2023-05-05T02:32:09.189Z,5.20
2023-05-05T02:34:38.410Z,4.72
2023-05-05T02:37:10.777Z,4.40
2023-05-05T02:39:42.838Z,5.00
2023-05-05T02:42:10.521Z,4.60
2023-05-05T02:44:39.520Z,4.32
2023-05-05T02:47:07.674Z,4.65
2023-05-05T02:49:34.109Z,4.30
2023-05-05T02:52:00.647Z,4.75
2023-05-05T02:54:27.551Z,4.68
2023-05-05T02:56:57.553Z,4.97
2023-05-05T02:59:33.377Z,5.50
2023-05-05T03:02:09.749Z,4.65
2023-05-05T03:04:40.116Z,5.18
2023-05-05T03:07:10.244Z,6.45
2023-05-05T03:09:40.139Z,5.85
2023-05-05T03:12:10.165Z,6.10
2023-05-05T03:14:39.620Z,6.28
2023-05-05T03:17:06.502Z,5.97
2023-05-05T03:19:35.371Z,6.57
2023-05-05T03:22:03.470Z,6.70
2023-05-05T03:24:29.964Z,7.18
2023-05-05T03:26:56.432Z,6.60
2023-05-05T03:29:24.190Z,5.43
2023-05-05T03:31:50.720Z,6.65
2023-05-05T03:34:17.239Z,6.47
2023-05-05T03:36:43.666Z,5.35
2023-05-05T03:39:10.102Z,5.15
2023-05-05T03:41:36.517Z,6.53
2023-05-05T03:44:03.248Z,6.00
2023-05-05T03:46:31.020Z,5.93
2023-05-05T03:48:57.478Z,5.85
2023-05-05T03:51:24.186Z,5.85
2023-05-05T03:53:50.717Z,5.47
2023-05-05T03:56:17.236Z,5.75
2023-05-05T03:58:43.685Z,5.80
2023-05-05T04:01:10.148Z,4.93
2023-05-05T04:03:38.015Z,5.15
2023-05-05T04:06:04.830Z,5.05
2023-05-05T04:08:31.293Z,5.05
2023-05-05T04:10:57.736Z,5.05
2023-05-05T04:13:24.331Z,4.53
2023-05-05T04:15:50.932Z,4.77
2023-05-05T04:18:17.399Z,4.80
2023-05-05T04:20:45.191Z,4.63
2023-05-05T04:23:11.616Z,4.20
2023-05-05T04:25:38.433Z,4.28
2023-05-05T04:28:04.988Z,4.50
2023-05-05T04:30:31.434Z,4.57
2023-05-05T04:32:57.908Z,4.55
2023-05-05T04:35:24.384Z,3.30
2023-05-05T04:37:52.181Z,4.03
2023-05-05T04:40:18.675Z,4.55
2023-05-05T04:42:45.104Z,3.85
2023-05-05T04:45:11.715Z,3.78
2023-05-05T04:47:38.287Z,3.57
2023-05-05T04:50:06.188Z,4.15
2023-05-05T04:52:32.889Z,3.55
2023-05-05T04:55:00.668Z,3.92
2023-05-05T04:57:27.114Z,3.90
2023-05-05T04:59:53.564Z,3.53
2023-05-05T05:02:20.128Z,3.95
2023-05-05T05:04:46.738Z,3.60
2023-05-05T05:07:13.190Z,4.50
2023-05-05T05:09:39.604Z,3.35
2023-05-05T05:12:07.504Z,3.80
2023-05-05T05:14:36.842Z,3.70
2023-05-05T05:17:03.291Z,3.78
2023-05-05T05:19:29.702Z,3.10
2023-05-05T05:21:56.135Z,3.47
2023-05-05T05:24:22.564Z,3.97
2023-05-05T05:26:48.976Z,3.78
2023-05-05T05:29:16.742Z,3.90
2023-05-05T05:31:43.173Z,3.33
2023-05-05T05:34:12.023Z,3.00
2023-05-05T05:36:39.198Z,3.13
2023-05-05T05:39:05.611Z,3.00
2023-05-05T05:41:32.037Z,3.08
2023-05-05T05:43:58.458Z,3.33
2023-05-05T05:46:26.328Z,2.70
2023-05-05T05:48:52.818Z,3.20
2023-05-05T05:51:19.268Z,3.53
2023-05-05T05:53:45.697Z,3.20
2023-05-05T05:56:12.175Z,2.97
2023-05-05T05:58:38.650Z,2.83
2023-05-05T06:01:05.112Z,2.70
2023-05-05T06:03:33.022Z,3.10
2023-05-05T06:05:59.512Z,3.20
2023-05-05T06:08:25.940Z,2.92
2023-05-05T06:10:52.475Z,2.67
2023-05-05T06:13:18.928Z,2.70
2023-05-05T06:15:45.433Z,2.28
2023-05-05T06:18:11.985Z,3.60
2023-05-05T06:20:39.847Z,2.70
2023-05-05T06:23:06.964Z,2.65
2023-05-05T06:25:33.443Z,2.42
2023-05-05T06:27:59.913Z,2.55
2023-05-05T06:30:26.454Z,2.63
2023-05-05T06:32:53.066Z,2.33
2023-05-05T06:35:19.513Z,2.85
2023-05-05T06:37:47.264Z,2.80
2023-05-05T06:40:13.799Z,2.70
2023-05-05T06:42:40.262Z,2.38
2023-05-05T06:45:07.783Z,2.85
2023-05-05T06:47:34.532Z,2.47
2023-05-05T06:50:00.999Z,2.58
2023-05-05T06:52:27.470Z,2.20
2023-05-05T06:54:55.256Z,2.47
2023-05-05T06:57:21.693Z,2.85
2023-05-05T06:59:48.122Z,2.60
2023-05-05T07:02:14.576Z,2.78
2023-05-05T07:04:41.085Z,3.13
2023-05-05T07:07:07.494Z,2.28
2023-05-05T07:09:33.929Z,2.80
2023-05-05T07:12:01.690Z,2.40
2023-05-05T07:14:28.126Z,2.10
2023-05-05T07:16:54.654Z,2.72
2023-05-05T07:19:21.124Z,2.50
2023-05-05T07:21:47.684Z,2.70
2023-05-05T07:24:14.132Z,2.88
2023-05-05T07:26:40.618Z,2.25
2023-05-05T07:29:08.406Z,2.67
2023-05-05T07:31:34.884Z,2.72
2023-05-05T07:34:01.323Z,3.22
2023-05-05T07:36:28.125Z,3.25
2023-05-05T07:38:54.555Z,3.70
2023-05-05T07:41:21.003Z,3.13
2023-05-05T07:43:47.437Z,3.47
2023-05-05T07:46:15.376Z,3.30
2023-05-05T07:48:41.954Z,3.30
2023-05-05T07:51:08.668Z,3.80
2023-05-05T07:53:35.105Z,2.90
2023-05-05T07:56:01.729Z,3.53
2023-05-05T07:58:28.230Z,3.63
2023-05-05T08:00:54.732Z,3.35
2023-05-05T08:03:22.697Z,3.35
2023-05-05T08:05:51.638Z,3.17
2023-05-05T08:08:18.257Z,3.28
2023-05-05T08:10:44.663Z,4.00
2023-05-05T08:13:11.159Z,3.60
2023-05-05T08:15:37.667Z,3.20
2023-05-05T08:18:04.402Z,3.47
2023-05-05T08:20:32.284Z,2.92
2023-05-05T08:22:58.925Z,3.40
2023-05-05T08:25:25.340Z,3.57
2023-05-05T08:27:51.776Z,3.35
2023-05-05T08:30:18.230Z,2.95
2023-05-05T08:32:44.687Z,2.97
2023-05-05T08:35:11.391Z,3.45
2023-05-05T08:37:39.789Z,3.40
2023-05-05T08:40:07.548Z,3.35
2023-05-05T08:42:38.531Z,3.30
2023-05-05T08:45:07.958Z,3.30
2023-05-05T08:47:35.078Z,3.50
2023-05-05T08:50:02.036Z,3.47
2023-05-05T08:52:31.689Z,4.45
2023-05-05T08:55:05.782Z,5.53
2023-05-05T08:57:38.293Z,3.70
2023-05-05T09:00:05.932Z,3.65
2023-05-05T09:02:32.738Z,3.88
2023-05-05T09:05:00.061Z,3.72
2023-05-05T09:07:26.565Z,3.20
2023-05-05T09:09:53.515Z,3.80
2023-05-05T09:12:21.783Z,3.92
2023-05-05T09:14:48.212Z,4.15
2023-05-05T09:17:24.469Z,3.55
2023-05-05T09:20:00.977Z,3.60
2023-05-05T09:22:33.469Z,3.47
2023-05-05T09:24:59.924Z,3.40
2023-05-05T09:27:27.828Z,3.70
2023-05-05T09:29:54.573Z,2.80
2023-05-05T09:32:21.100Z,2.97
2023-05-05T09:34:57.466Z,3.07
2023-05-05T09:37:27.496Z,2.50
2023-05-05T09:39:55.090Z,2.80
2023-05-05T09:42:21.539Z,3.13
2023-05-05T09:44:49.332Z,2.30
2023-05-05T09:47:28.523Z,2.40
2023-05-05T09:49:58.948Z,1.65
2023-05-05T09:52:25.515Z,2.20
2023-05-05T09:54:54.495Z,2.53
2023-05-05T09:57:29.093Z,2.30
2023-05-05T09:59:57.890Z,2.60
2023-05-05T10:02:31.686Z,2.53
2023-05-05T10:05:06.678Z,2.15
2023-05-05T10:07:33.239Z,2.08
2023-05-05T10:09:59.651Z,2.13
2023-05-05T10:12:26.990Z,2.53
2023-05-05T10:14:57.262Z,2.45
2023-05-05T10:17:24.701Z,2.95
2023-05-05T10:19:52.810Z,2.08
2023-05-05T10:22:23.206Z,2.40
2023-05-05T10:24:57.074Z,2.88
2023-05-05T10:27:24.448Z,2.00
2023-05-05T10:32:51.422Z,2.38
2023-05-05T10:35:16.526Z,2.60
2023-05-05T10:37:44.636Z,3.30
2023-05-05T10:40:13.307Z,2.63
2023-05-05T10:42:40.271Z,2.65
2023-05-05T10:45:07.738Z,3.45
2023-05-05T10:47:36.839Z,3.80
2023-05-05T10:50:11.088Z,2.63
2023-05-05T10:52:44.395Z,3.10
2023-05-05T10:55:16.025Z,2.63
2023-05-05T10:57:44.460Z,3.03
2023-05-05T11:00:49.849Z,3.28
2023-05-05T11:03:21.933Z,2.92
2023-05-05T11:06:10.426Z,3.22
2023-05-05T11:08:37.696Z,2.83
2023-05-05T11:11:04.992Z,3.03
2023-05-05T11:13:31.747Z,2.50
2023-05-05T11:15:59.393Z,2.92
2023-05-05T11:18:35.457Z,2.60
2023-05-05T11:21:15.785Z,2.80
2023-05-05T11:23:44.217Z,2.45
2023-05-05T11:26:11.364Z,1.92
2023-05-05T11:28:59.990Z,2.22
2023-05-05T11:31:27.167Z,2.33
2023-05-05T11:36:39.081Z,2.10
2023-05-05T11:39:10.919Z,2.50
2023-05-05T11:41:51.828Z,1.90
2023-05-05T11:44:19.633Z,1.80
2023-05-05T11:47:19.441Z,2.00
2023-05-05T11:49:47.268Z,2.15
2023-05-05T11:52:14.737Z,2.17
2023-05-05T11:54:43.245Z,2.10
2023-05-05T11:57:09.665Z,2.58
2023-05-05T11:59:37.323Z,2.70
2023-05-05T12:02:04.587Z,2.30
2023-05-05T12:04:31.449Z,2.80
2023-05-05T12:06:59.757Z,2.45
2023-05-05T12:09:27.079Z,2.25
2023-05-05T12:14:21.449Z,2.55
2023-05-05T12:16:57.558Z,2.30
2023-05-05T12:19:24.368Z,2.30
2023-05-05T12:21:50.937Z,2.20
2023-05-05T12:24:18.765Z,2.43
2023-05-05T12:26:45.233Z,2.45
2023-05-05T12:29:11.810Z,2.53
2023-05-05T12:31:39.874Z,2.30
2023-05-05T12:34:08.197Z,2.80
2023-05-05T12:36:35.551Z,2.40
2023-05-05T12:41:30.324Z,2.40
2023-05-05T12:43:57.390Z,2.50
2023-05-05T12:46:24.265Z,2.30
2023-05-05T12:48:59.984Z,1.90
2023-05-05T12:51:26.561Z,2.28
2023-05-05T12:54:01.893Z,1.80
2023-05-05T12:56:34.739Z,1.63
2023-05-05T12:59:02.076Z,1.40
2023-05-05T13:01:29.054Z,1.80
2023-05-05T13:04:11.593Z,1.90
2023-05-05T13:06:38.813Z,1.45
2023-05-05T13:09:06.138Z,1.70
2023-05-05T13:11:36.345Z,1.60
2023-05-05T13:14:02.878Z,1.80
2023-05-05T13:16:29.706Z,1.92
2023-05-05T13:18:56.147Z,1.58
2023-05-05T13:21:22.641Z,1.60
2023-05-05T13:23:49.073Z,1.50
2023-05-05T13:26:15.521Z,1.63
2023-05-05T13:28:43.262Z,1.70
2023-05-05T13:31:09.729Z,2.15
2023-05-05T13:33:36.196Z,1.73
2023-05-05T13:36:03.125Z,1.90
2023-05-05T13:38:29.677Z,1.70
2023-05-05T13:40:56.277Z,1.63
2023-05-05T13:43:22.747Z,1.08
2023-05-05T13:45:50.556Z,1.63
2023-05-05T13:48:17.014Z,1.95
2023-05-05T13:50:43.432Z,1.63
2023-05-05T13:53:09.887Z,1.60
2023-05-05T13:55:36.446Z,1.90
2023-05-05T13:58:02.880Z,1.80
2023-05-05T14:00:29.460Z,1.70
2023-05-05T14:02:57.318Z,2.13
2023-05-05T14:05:23.764Z,1.77
2023-05-05T14:07:50.198Z,1.70
2023-05-05T14:10:16.600Z,1.80
2023-05-05T14:12:43.055Z,1.65
2023-05-05T14:15:10.380Z,1.75
2023-05-05T14:17:37.141Z,1.83
2023-05-05T14:20:06.407Z,1.67
2023-05-05T14:22:32.888Z,2.55
2023-05-05T14:24:59.326Z,2.00
2023-05-05T14:27:25.892Z,1.90
2023-05-05T14:29:52.304Z,2.53
2023-05-05T14:32:18.720Z,2.58
2023-05-05T14:34:45.194Z,1.92
2023-05-05T14:37:12.948Z,1.92
2023-05-05T14:39:39.400Z,2.38
2023-05-05T14:42:06.007Z,2.80
2023-05-05T14:44:32.453Z,1.90
2023-05-05T14:46:58.977Z,1.60
2023-05-05T14:49:25.414Z,2.05
2023-05-05T14:51:51.837Z,1.58
2023-05-05T14:54:27.830Z,1.90
2023-05-05T14:56:55.348Z,1.65
2023-05-05T14:59:21.848Z,1.80
2023-05-05T15:01:48.454Z,1.77
2023-05-05T15:04:15.022Z,1.25
2023-05-05T15:06:41.468Z,1.90
2023-05-05T15:09:07.921Z,2.13
2023-05-05T15:11:35.668Z,2.05
2023-05-05T15:14:02.189Z,2.20
2023-05-05T15:16:28.708Z,2.60
2023-05-05T15:18:55.162Z,2.20
2023-05-05T15:21:21.597Z,3.35
2023-05-05T15:23:48.071Z,1.90
2023-05-05T15:26:14.510Z,1.85
2023-05-05T15:28:42.317Z,1.88
2023-05-05T15:31:08.760Z,2.20
2023-05-05T15:33:35.188Z,2.97
2023-05-05T15:36:01.651Z,2.78
2023-05-05T15:38:29.355Z,2.70
2023-05-05T15:40:55.847Z,3.33
2023-05-05T15:43:22.257Z,2.67
2023-05-05T15:45:50.233Z,4.20
2023-05-05T15:48:16.658Z,4.85
2023-05-05T15:50:43.132Z,5.25
2023-05-05T15:53:09.564Z,4.63
2023-05-05T15:55:36.005Z,5.47
2023-05-05T15:58:02.444Z,5.25
2023-05-05T16:00:28.879Z,5.28
2023-05-05T16:02:56.800Z,5.57
2023-05-05T16:05:23.421Z,5.18
2023-05-05T16:07:49.983Z,6.70
2023-05-05T16:10:16.406Z,6.75
2023-05-05T16:12:42.882Z,5.65
2023-05-05T16:15:10.674Z,4.80
2023-05-05T16:17:37.457Z,6.30
2023-05-05T16:20:06.305Z,5.53
2023-05-05T16:22:32.758Z,5.68
2023-05-05T16:24:59.176Z,5.68
2023-05-05T16:27:25.648Z,5.60
2023-05-05T16:29:52.083Z,5.97
2023-05-05T16:32:18.534Z,5.35
2023-05-05T16:34:45.228Z,4.95
2023-05-05T16:37:12.984Z,5.57
2023-05-05T16:39:39.423Z,7.13
2023-05-05T16:42:06.007Z,6.25
2023-05-05T16:44:32.450Z,7.13
2023-05-05T16:46:58.886Z,7.13
2023-05-05T16:49:25.305Z,5.30
2023-05-05T16:51:51.803Z,5.60
2023-05-05T16:54:19.612Z,5.75
2023-05-05T16:56:46.133Z,6.22
2023-05-05T16:59:12.572Z,7.03
2023-05-05T17:01:39.051Z,5.40
2023-05-05T17:04:05.519Z,4.22
2023-05-05T17:06:32.043Z,4.22
2023-05-05T17:08:59.144Z,4.40
2023-05-05T17:11:26.943Z,4.07
2023-05-05T17:13:53.410Z,4.22
2023-05-05T17:16:19.886Z,3.88
2023-05-05T17:18:46.517Z,4.10
2023-05-05T17:21:12.978Z,4.03
2023-05-05T17:23:39.444Z,5.55
2023-05-05T17:26:05.856Z,3.30
2023-05-05T17:28:33.633Z,4.05
2023-05-05T17:31:00.083Z,4.78
2023-05-05T17:33:26.573Z,4.22
2023-05-05T17:35:54.212Z,5.75
2023-05-05T17:38:20.640Z,4.63
2023-05-05T17:40:47.215Z,4.10
2023-05-05T17:43:13.674Z,3.90
2023-05-05T17:45:41.444Z,4.25
2023-05-05T17:48:07.924Z,5.03
2023-05-05T17:50:34.335Z,4.45
2023-05-05T17:53:00.783Z,4.30
2023-05-05T17:55:27.187Z,3.95
2023-05-05T17:57:53.600Z,4.00
2023-05-05T18:00:21.148Z,3.83
2023-05-05T18:05:15.227Z,3.80
2023-05-05T18:07:41.639Z,4.28
2023-05-05T18:10:09.448Z,3.60
2023-05-05T18:12:35.927Z,3.60
2023-05-05T18:15:02.557Z,3.80
2023-05-05T18:17:28.960Z,4.97
2023-05-05T18:19:56.701Z,4.53
2023-05-05T18:22:23.152Z,4.22
2023-05-05T18:24:49.624Z,4.55
2023-05-05T18:27:16.124Z,4.20
2023-05-05T18:29:42.583Z,4.50
2023-05-05T18:32:09.014Z,4.72
2023-05-05T18:34:35.441Z,5.10
2023-05-05T18:37:03.192Z,5.13
2023-05-05T18:39:29.573Z,5.10
2023-05-05T18:41:56.000Z,5.40
2023-05-05T18:44:22.414Z,5.35
2023-05-05T18:46:48.886Z,4.93
2023-05-05T18:49:15.482Z,4.90
2023-05-05T18:51:42.083Z,5.23
2023-05-05T18:54:09.869Z,5.38
2023-05-05T18:56:36.272Z,5.60
2023-05-05T18:59:02.715Z,6.35
2023-05-05T19:01:29.140Z,7.40
2023-05-05T19:03:55.615Z,7.78
2023-05-05T19:06:22.113Z,8.35
2023-05-05T19:08:48.602Z,8.27
2023-05-05T19:11:16.412Z,7.13
2023-05-05T19:13:43.030Z,7.97
2023-05-05T19:16:09.475Z,7.80
2023-05-05T19:18:35.911Z,6.55
2023-05-05T19:21:02.370Z,6.28
2023-05-05T19:23:28.866Z,7.63
2023-05-05T19:25:55.301Z,6.70
2023-05-05T19:28:23.121Z,5.28
2023-05-05T19:30:49.574Z,6.47
2023-05-05T19:33:16.255Z,5.30
2023-05-05T19:35:43.153Z,5.17
2023-05-05T19:38:09.792Z,5.40
2023-05-05T19:40:37.031Z,5.23
2023-05-05T19:43:03.495Z,6.68
2023-05-05T19:45:31.341Z,6.30
2023-05-05T19:47:57.884Z,4.85
2023-05-05T19:50:24.395Z,5.70
2023-05-05T19:52:50.810Z,4.72
2023-05-05T19:55:18.281Z,5.65
2023-05-05T19:57:44.761Z,4.88
2023-05-05T20:00:12.219Z,5.50
2023-05-05T20:02:41.342Z,5.63
2023-05-05T20:05:08.568Z,5.50
2023-05-05T20:07:35.021Z,5.65
2023-05-05T20:10:01.626Z,5.82
2023-05-05T20:12:28.074Z,5.10
2023-05-05T20:14:54.475Z,5.47
2023-05-05T20:17:20.912Z,4.80
2023-05-05T20:19:48.732Z,4.78
2023-05-05T20:22:15.191Z,5.20
2023-05-05T20:24:41.624Z,4.95
2023-05-05T20:27:08.167Z,6.05
2023-05-05T20:29:34.637Z,5.35
2023-05-05T20:32:01.067Z,5.53
2023-05-05T20:34:27.494Z,6.10
2023-05-05T20:36:56.551Z,5.40
2023-05-05T20:39:23.010Z,5.68
2023-05-05T20:41:49.457Z,6.30
2023-05-05T20:44:15.893Z,5.68
2023-05-05T20:46:42.368Z,6.10
2023-05-05T20:49:08.840Z,5.88
2023-05-05T20:51:35.293Z,5.95
2023-05-05T20:54:04.009Z,6.25
2023-05-05T20:56:30.415Z,7.32
2023-05-05T20:58:56.867Z,5.68
2023-05-05T21:01:23.371Z,5.70
2023-05-05T21:03:49.828Z,6.78
2023-05-05T21:06:16.268Z,6.85
2023-05-05T21:08:42.694Z,5.88
2023-05-05T21:11:10.588Z,7.25
2023-05-05T21:13:37.048Z,6.32
2023-05-05T21:16:03.818Z,5.88
2023-05-05T21:18:30.211Z,6.03
2023-05-05T21:20:56.620Z,6.75
2023-05-05T21:23:23.016Z,6.07
2023-05-05T21:25:49.559Z,6.93
2023-05-05T21:28:17.405Z,6.40
2023-05-05T21:30:45.174Z,5.78
2023-05-05T21:33:14.785Z,5.80
2023-05-05T21:35:41.294Z,5.93
2023-05-05T21:38:07.716Z,6.97
2023-05-05T21:40:34.124Z,5.72
2023-05-05T21:43:00.564Z,5.70
2023-05-05T21:45:28.356Z,5.18
2023-05-05T21:47:54.817Z,4.35
2023-05-05T21:50:21.287Z,4.10
2023-05-05T21:52:47.727Z,4.45
2023-05-05T21:55:14.157Z,4.05
2023-05-05T21:57:40.589Z,5.63
2023-05-05T22:00:08.439Z,3.78
2023-05-05T22:02:36.363Z,4.38
2023-05-05T22:05:02.816Z,4.70
2023-05-05T22:07:30.425Z,5.28
2023-05-05T22:09:57.416Z,5.45
2023-05-05T22:12:23.825Z,5.07
2023-05-05T22:14:50.260Z,5.30
2023-05-05T22:17:16.677Z,4.80
2023-05-05T22:19:44.460Z,4.78
2023-05-05T22:22:11.930Z,4.82
2023-05-05T22:24:38.352Z,5.10
2023-05-05T22:27:04.913Z,4.43
2023-05-05T22:29:31.325Z,4.93
2023-05-05T22:31:57.732Z,4.95
2023-05-05T22:34:24.246Z,5.60
2023-05-05T22:36:51.981Z,5.50
2023-05-05T22:39:18.466Z,5.70
2023-05-05T22:41:44.962Z,5.07
2023-05-05T22:44:11.411Z,5.90
2023-05-05T22:46:37.891Z,5.03
2023-05-05T22:49:04.352Z,4.82
2023-05-05T22:51:30.870Z,4.50
2023-05-05T22:53:58.614Z,4.45
2023-05-05T22:56:25.197Z,4.60
2023-05-05T22:58:51.610Z,5.30
2023-05-05T23:01:18.088Z,4.13
2023-05-05T23:03:44.562Z,3.80
2023-05-05T23:06:10.994Z,3.90
2023-05-05T23:08:37.442Z,3.55
2023-05-05T23:11:05.460Z,3.25
2023-05-05T23:13:31.859Z,3.60
2023-05-05T23:15:58.311Z,3.20
2023-05-05T23:18:24.782Z,3.33
2023-05-05T23:20:51.236Z,3.72
2023-05-05T23:23:17.651Z,4.10
2023-05-05T23:25:44.664Z,3.85
2023-05-05T23:28:12.429Z,4.25
2023-05-05T23:30:38.949Z,4.32
2023-05-05T23:33:05.412Z,4.63
2023-05-05T23:35:31.884Z,4.30
2023-05-05T23:37:58.314Z,3.78
2023-05-05T23:40:24.881Z,3.30
2023-05-05T23:42:51.295Z,4.75
2023-05-05T23:45:19.560Z,4.10
2023-05-05T23:47:46.192Z,3.92
2023-05-05T23:50:12.675Z,3.92
2023-05-05T23:52:39.160Z,3.20
2023-05-05T23:55:06.845Z,3.47
2023-05-05T23:57:35.383Z,3.10
